Terminal Aerodrome Forecast
Issued by NWS

Home | Current Version | Previous Version | Text Only | Print | Product List | Glossary On
Versions: 1 2 3 4 5 6 7 8 9 10 11 12 13 14
566
FTUS42 KMLB 151935 AAA
TAFLEE
TAF AMD
KLEE 151935Z 1520/1618 27010G16KT P6SM SCT045 SCT070
     FM160000 VRB04KT P6SM FEW040 SCT250
     FM160900 36004KT P6SM FEW020 FEW070 SCT250
     FM161500 04006KT P6SM FEW035 BKN070=

USA.gov is the U.S. government's official web portal to all federal, state and local government web resources and services.